Time;durP1;ratioP1;P1;durP2;ratioP2;P2;SDS_P1;SDS_P2;PMS_P1;PMS_P2;Temp;Humidity;BMP_temperature;BMP_pressure;BME280_temperature;BME280_humidity;BME280_pressure;Samples;Min_cycle;Max_cycle;Signal;HPM_P1;HPM_P2
2023/02/19 00:01:19;;;;;;;;;;;8.60;99.90;;;;;;5023072;28;20090;-80
2023/02/19 00:03:51;;;;;;;59.53;19.25;;;8.60;99.90;;;;;;5046317;28;19927;-79
2023/02/19 00:06:19;;;;;;;49.67;17.23;;;8.60;99.90;;;;;;5008989;28;20044;-80
2023/02/19 00:08:46;;;;;;;45.20;16.05;;;8.60;99.90;;;;;;5028282;28;20049;-78
2023/02/19 00:11:19;;;;;;;46.80;17.05;;;8.60;99.90;;;;;;5004924;28;20052;-78
2023/02/19 00:13:47;;;;;;;54.47;18.20;;;8.70;99.90;;;;;;5029750;28;20052;-79
2023/02/19 00:16:17;;;;;;;59.42;19.42;;;8.70;99.90;;;;;;5029411;28;20316;-77
2023/02/19 00:18:45;;;;;;;58.83;21.88;;;8.60;99.90;;;;;;5026749;28;20055;-79
2023/02/19 00:21:12;;;;;;;66.45;22.83;;;8.70;99.90;;;;;;5012005;28;20051;-80
2023/02/19 00:23:39;;;;;;;73.03;27.25;;;8.70;99.90;;;;;;5031277;28;20064;-79
2023/02/19 00:26:11;;;;;;;78.38;31.33;;;8.70;99.90;;;;;;5009795;28;20127;-79
2023/02/19 00:28:47;;;;;;;85.93;31.50;;;8.70;99.90;;;;;;5026074;28;20094;-79
2023/02/19 00:31:14;;;;;;;79.65;27.33;;;8.70;99.90;;;;;;5033640;28;20444;-79
2023/02/19 00:33:43;;;;;;;67.93;26.85;;;8.80;99.90;;;;;;5031786;28;20044;-79
2023/02/19 00:36:10;;;;;;;66.55;27.10;;;8.70;99.90;;;;;;5015413;28;20040;-80
2023/02/19 00:38:39;;;;;;;79.65;31.02;;;8.70;99.90;;;;;;5033014;28;20525;-79
2023/02/19 00:41:19;;;;;;;75.43;28.95;;;8.70;99.90;;;;;;5027202;28;20041;-78
2023/02/19 00:43:57;;;;;;;69.53;27.48;;;8.70;99.90;;;;;;5014451;28;20041;-80
2023/02/19 00:46:37;;;;;;;77.13;30.73;;;8.80;99.90;;;;;;5011037;28;20065;-80
2023/02/19 00:49:06;;;;;;;58.75;24.73;;;8.80;99.90;;;;;;5020725;28;20124;-80
2023/02/19 00:51:36;;;;;;;75.95;30.65;;;8.80;99.90;;;;;;5021611;28;20072;-79
2023/02/19 00:54:03;;;;;;;65.20;27.80;;;8.80;99.90;;;;;;5014438;28;20529;-78
2023/02/19 00:56:32;;;;;;;62.78;25.80;;;8.80;99.90;;;;;;5020153;28;20045;-80
2023/02/19 00:58:59;;;;;;;46.60;21.60;;;8.80;99.90;;;;;;5025576;28;20044;-78
2023/02/19 01:01:26;;;;;;;57.47;22.13;;;8.80;99.90;;;;;;5030613;28;20087;-79
2023/02/19 01:03:53;;;;;;;42.58;19.48;;;8.80;99.90;;;;;;5046903;28;20281;-77
2023/02/19 01:06:22;;;;;;;45.42;19.40;;;8.80;99.90;;;;;;5022328;28;20029;-78
2023/02/19 01:08:49;;;;;;;50.33;20.38;;;8.90;99.90;;;;;;5020380;28;20040;-77
2023/02/19 01:11:24;;;;;;;54.50;22.80;;;8.90;99.90;;;;;;5014012;28;20049;-76
2023/02/19 01:13:50;;;;;;;41.33;18.92;;;8.90;99.90;;;;;;5019623;28;20460;-78
2023/02/19 01:16:23;;;;;;;47.55;21.02;;;8.80;99.90;;;;;;5025466;28;20045;-77
2023/02/19 01:18:50;;;;;;;42.75;20.98;;;8.90;99.90;;;;;;5012040;28;20048;-77
2023/02/19 01:21:22;;;;;;;46.67;22.60;;;8.90;99.90;;;;;;5015709;28;20442;-76
2023/02/19 01:23:51;;;;;;;54.95;25.80;;;8.90;99.90;;;;;;5026941;28;20048;-78
2023/02/19 01:26:24;;;;;;;54.55;26.25;;;8.90;99.90;;;;;;5018013;28;20240;-76
2023/02/19 01:28:51;;;;;;;50.13;23.60;;;8.90;99.90;;;;;;5033942;28;20422;-78
2023/02/19 01:31:21;;;;;;;37.65;17.90;;;8.90;99.90;;;;;;5035388;28;21962;-75
2023/02/19 01:33:54;;;;;;;57.15;23.70;;;8.90;99.90;;;;;;5024743;28;20472;-76
2023/02/19 01:36:21;;;;;;;52.55;25.15;;;8.90;99.90;;;;;;5032259;28;20095;-76
2023/02/19 01:38:48;;;;;;;55.85;24.73;;;8.90;99.90;;;;;;5031815;28;20464;-76
2023/02/19 01:41:18;;;;;;;44.35;20.10;;;8.90;99.90;;;;;;5016234;28;20262;-78
2023/02/19 01:44:11;;;;;;;57.03;23.70;;;9.00;99.90;;;;;;5013091;28;20163;-77
2023/02/19 01:46:39;;;;;;;47.83;22.05;;;9.00;99.90;;;;;;5009095;28;20376;-77
2023/02/19 01:49:20;;;;;;;53.60;24.65;;;8.90;99.90;;;;;;5018264;28;20044;-77
2023/02/19 01:52:03;;;;;;;71.13;28.60;;;8.90;99.90;;;;;;5019690;28;20365;-78
2023/02/19 01:54:33;;;;;;;74.32;34.67;;;8.90;99.90;;;;;;5017528;28;20073;-78
2023/02/19 01:57:05;;;;;;;83.32;34.72;;;8.90;99.90;;;;;;5019499;28;20040;-80
2023/02/19 01:59:33;;;;;;;74.30;29.35;;;8.90;99.90;;;;;;5005369;28;20045;-79
2023/02/19 02:02:00;;;;;;;91.47;33.05;;;8.80;99.90;;;;;;5030775;28;20132;-77
2023/02/19 02:04:31;;;;;;;79.07;32.25;;;8.90;99.90;;;;;;5013066;28;20569;-77
2023/02/19 02:07:00;;;;;;;77.57;34.80;;;8.90;99.90;;;;;;5031660;28;20127;-77
2023/02/19 02:12:14;;;;;;;119.28;43.33;;;8.90;99.90;;;;;;5030790;28;20504;-80
2023/02/19 02:14:44;;;;;;;89.75;34.38;;;8.90;99.90;;;;;;5025063;28;20112;-78
2023/02/19 02:17:28;;;;;;;92.90;34.70;;;8.90;99.90;;;;;;5006961;28;20067;-79
2023/02/19 02:20:19;;;;;;;95.18;34.42;;;8.90;99.90;;;;;;5033961;28;20045;-79
2023/02/19 02:22:56;;;;;;;88.72;36.13;;;8.90;99.90;;;;;;5022034;28;20040;-79
2023/02/19 02:25:26;;;;;;;98.22;37.72;;;8.90;99.90;;;;;;5029769;28;20044;-82
2023/02/19 02:28:06;;;;;;;91.93;36.42;;;8.90;99.90;;;;;;5014597;28;20128;-78
2023/02/19 02:30:53;;;;;;;98.22;38.47;;;8.90;99.90;;;;;;5020516;28;20091;-80
2023/02/19 02:33:22;;;;;;;116.05;45.42;;;8.90;99.90;;;;;;5016664;28;20271;-80
2023/02/19 02:36:02;;;;;;;120.95;48.08;;;8.90;99.90;;;;;;5026583;28;20068;-78
2023/02/19 02:38:31;;;;;;;118.20;45.40;;;8.90;99.90;;;;;;5030515;28;20079;-80
2023/02/19 02:40:59;;;;;;;101.10;41.97;;;8.80;99.90;;;;;;5029797;28;20075;-81
2023/02/19 02:43:25;;;;;;;85.38;36.13;;;8.80;99.90;;;;;;5022816;28;20465;-79
2023/02/19 02:45:53;;;;;;;76.18;31.55;;;8.80;99.90;;;;;;5035651;28;20482;-77
2023/02/19 02:48:27;;;;;;;79.03;32.33;;;8.70;99.90;;;;;;5013417;28;20049;-80
2023/02/19 02:51:09;;;;;;;80.82;34.15;;;8.80;99.90;;;;;;5030511;28;20362;-77
2023/02/19 02:56:47;;;;;;;92.15;36.28;;;8.80;99.90;;;;;;5031707;28;20122;-79
2023/02/19 02:59:17;;;;;;;102.88;39.97;;;8.80;99.90;;;;;;5023522;28;20051;-79
2023/02/19 03:07:54;;;;;;;102.20;38.42;;;8.80;99.90;;;;;;5030338;28;20043;-79
2023/02/19 03:10:33;;;;;;;98.95;41.10;;;8.80;99.90;;;;;;5008053;28;20052;-81
2023/02/19 03:21:37;;;;;;;81.07;32.33;;;8.80;99.90;;;;;;5024036;28;20558;-80
2023/02/19 03:26:58;;;;;;;80.32;33.90;;;8.70;99.90;;;;;;5026034;28;20256;-80
2023/02/19 03:29:30;;;;;;;94.65;34.85;;;8.80;99.90;;;;;;5009696;28;20048;-83
2023/02/19 03:32:05;;;;;;;118.32;41.47;;;8.70;99.90;;;;;;5010773;28;20136;-81
2023/02/19 03:34:40;;;;;;;98.43;34.67;;;8.80;99.90;;;;;;5022393;28;20048;-81
2023/02/19 03:37:26;;;;;;;95.65;33.88;;;8.70;99.90;;;;;;5011407;28;20563;-80
2023/02/19 03:39:56;;;;;;;89.10;34.95;;;8.70;99.90;;;;;;5022573;28;20066;-83
2023/02/19 03:42:43;;;;;;;97.75;38.08;;;8.70;99.90;;;;;;5031600;28;20140;-80
2023/02/19 03:45:31;;;;;;;87.82;33.88;;;8.70;99.90;;;;;;5027431;28;20047;-79
2023/02/19 03:48:24;;;;;;;90.55;36.50;;;8.70;99.90;;;;;;5014649;28;20052;-81
2023/02/19 03:50:59;;;;;;;91.25;33.60;;;8.60;99.90;;;;;;5008244;28;20124;-81
2023/02/19 03:53:30;;;;;;;;;;;8.60;99.90;;;;;;5031151;28;20041;-81
2023/02/19 03:56:22;;;;;;;91.32;33.15;;;8.60;99.90;;;;;;5032383;28;20424;-80
2023/02/19 03:59:12;;;;;;;86.40;32.90;;;8.60;99.90;;;;;;5026780;28;20048;-78
2023/02/19 04:01:42;;;;;;;82.72;31.92;;;8.60;99.90;;;;;;5032004;28;20683;-79
2023/02/19 04:04:33;;;;;;;74.85;30.00;;;8.60;99.90;;;;;;5013932;28;20135;-80
2023/02/19 04:07:00;;;;;;;86.25;29.55;;;8.60;99.90;;;;;;5024840;28;20068;-79
2023/02/19 04:09:37;;;;;;;74.95;29.63;;;8.60;99.90;;;;;;5020248;28;20593;-81
2023/02/19 04:12:09;;;;;;;75.78;29.38;;;8.60;99.90;;;;;;5027042;28;20944;-83
2023/02/19 04:14:46;;;;;;;62.10;23.15;;;8.60;99.90;;;;;;5018246;28;20308;-81
2023/02/19 04:17:34;;;;;;;44.65;16.70;;;8.70;99.90;;;;;;5014455;28;20045;-81
2023/02/19 04:20:05;;;;;;;47.28;16.83;;;8.60;99.90;;;;;;5020011;28;20058;-82
2023/02/19 04:22:35;;;;;;;34.90;13.77;;;8.50;99.90;;;;;;5025175;28;20052;-83
2023/02/19 04:25:02;;;;;;;40.47;14.85;;;8.50;99.90;;;;;;5054594;28;20475;-83
2023/02/19 04:27:29;;;;;;;43.58;16.88;;;8.50;99.90;;;;;;5033015;28;20098;-80
2023/02/19 04:29:55;;;;;;;35.35;14.38;;;8.40;99.90;;;;;;5024644;28;20590;-80
2023/02/19 04:32:26;;;;;;;39.33;16.27;;;8.30;99.90;;;;;;5031790;28;20067;-81
2023/02/19 04:34:53;;;;;;;32.30;14.18;;;8.30;99.90;;;;;;5028171;28;20465;-83
2023/02/19 04:37:20;;;;;;;37.95;13.23;;;8.30;99.90;;;;;;5028089;28;20059;-83
2023/02/19 04:39:46;;;;;;;24.40;9.50;;;8.30;99.90;;;;;;5029054;28;20324;-81
2023/02/19 04:42:13;;;;;;;30.15;13.07;;;8.30;99.90;;;;;;5020332;28;20537;-80
2023/02/19 04:44:40;;;;;;;37.42;14.32;;;8.30;99.90;;;;;;5022231;28;20071;-82
2023/02/19 04:47:07;;;;;;;32.65;13.45;;;8.30;99.90;;;;;;5033795;28;20036;-82
2023/02/19 04:49:33;;;;;;;31.23;12.20;;;8.20;99.90;;;;;;5031973;28;20052;-80
2023/02/19 04:52:00;;;;;;;43.00;16.50;;;8.20;99.90;;;;;;5032453;28;20040;-81
2023/02/19 04:54:27;;;;;;;44.40;16.83;;;8.20;99.90;;;;;;5025750;28;20510;-82
2023/02/19 04:56:54;;;;;;;38.17;16.95;;;8.30;99.90;;;;;;5030670;28;20040;-82
2023/02/19 04:59:20;;;;;;;44.47;18.60;;;8.20;99.90;;;;;;5028484;28;20045;-80
2023/02/19 05:01:47;;;;;;;44.20;16.98;;;8.20;99.90;;;;;;5020060;28;20584;-80
2023/02/19 05:04:14;;;;;;;42.72;17.50;;;8.30;99.90;;;;;;5045106;28;20049;-79
2023/02/19 05:06:41;;;;;;;45.58;17.35;;;8.20;99.90;;;;;;5025008;28;20043;-79
2023/02/19 05:09:07;;;;;;;44.20;18.77;;;8.20;99.90;;;;;;5015060;28;20041;-80
2023/02/19 05:11:35;;;;;;;46.03;18.20;;;8.20;99.90;;;;;;5028935;28;20043;-81
2023/02/19 05:14:01;;;;;;;45.63;16.98;;;8.20;99.90;;;;;;5027353;28;20053;-79
2023/02/19 05:16:28;;;;;;;39.38;16.08;;;8.20;99.90;;;;;;5025495;28;20498;-81
2023/02/19 05:18:55;;;;;;;36.15;15.45;;;8.20;99.90;;;;;;5030135;28;20156;-81
2023/02/19 05:21:24;;;;;;;40.03;15.20;;;8.20;99.90;;;;;;5032581;28;20048;-81
2023/02/19 05:23:51;;;;;;;49.50;19.13;;;8.20;99.90;;;;;;5026824;28;20642;-79
2023/02/19 05:26:21;;;;;;;51.45;17.67;;;8.20;99.90;;;;;;5030513;28;20123;-78
2023/02/19 05:28:51;;;;;;;52.28;21.58;;;8.20;99.90;;;;;;5009789;28;20049;-80
2023/02/19 05:31:18;;;;;;;48.53;20.02;;;8.10;99.90;;;;;;5013414;28;20041;-80
2023/02/19 05:33:49;;;;;;;58.25;23.08;;;8.20;99.90;;;;;;5028818;28;20493;-78
2023/02/19 05:36:17;;;;;;;46.13;20.08;;;8.20;99.90;;;;;;5008688;28;20456;-79
2023/02/19 05:38:44;;;;;;;51.55;21.88;;;8.20;99.90;;;;;;5028460;28;20052;-79
2023/02/19 05:41:12;;;;;;;55.10;21.83;;;8.20;99.90;;;;;;5020362;28;20452;-80
2023/02/19 05:43:40;;;;;;;45.45;19.42;;;8.20;99.90;;;;;;5022401;28;20037;-79
2023/02/19 05:46:07;;;;;;;49.70;20.13;;;8.10;99.90;;;;;;5019630;28;20066;-77
2023/02/19 05:48:34;;;;;;;47.47;20.77;;;8.10;99.90;;;;;;5010990;28;20434;-78
2023/02/19 05:51:07;;;;;;;39.08;18.40;;;8.10;99.90;;;;;;5019686;28;20040;-79
2023/02/19 05:53:34;;;;;;;52.20;22.73;;;8.10;99.90;;;;;;5023760;28;20541;-80
2023/02/19 05:56:01;;;;;;;41.55;21.23;;;8.10;99.90;;;;;;5020085;28;20048;-78
2023/02/19 05:58:28;;;;;;;61.03;23.92;;;8.10;99.90;;;;;;5030756;28;20052;-80
2023/02/19 06:00:55;;;;;;;44.30;18.77;;;8.10;99.90;;;;;;5028127;28;20041;-78
2023/02/19 06:03:22;;;;;;;47.40;21.30;;;8.10;99.90;;;;;;5048128;28;20052;-80
2023/02/19 06:05:49;;;;;;;40.47;20.35;;;8.10;99.90;;;;;;5032450;28;20094;-80
2023/02/19 06:08:15;;;;;;;50.08;21.55;;;8.10;99.90;;;;;;5013469;28;20400;-79
2023/02/19 06:10:42;;;;;;;50.60;20.15;;;8.10;99.90;;;;;;5023623;28;20063;-82
2023/02/19 06:13:09;;;;;;;48.22;22.13;;;8.10;99.90;;;;;;5033421;28;20672;-78
2023/02/19 06:15:37;;;;;;;52.53;20.58;;;8.10;99.90;;;;;;5028067;28;20059;-79
2023/02/19 06:18:04;;;;;;;49.35;20.85;;;8.10;99.90;;;;;;5024043;28;20060;-79
2023/02/19 06:20:31;;;;;;;41.28;18.02;;;8.00;99.90;;;;;;5048872;28;20045;-78
2023/02/19 06:23:00;;;;;;;36.00;17.13;;;8.10;99.90;;;;;;5031790;28;20126;-78
2023/02/19 06:25:27;;;;;;;42.40;19.25;;;8.00;99.90;;;;;;5027747;28;20040;-79
2023/02/19 06:27:53;;;;;;;48.45;23.10;;;8.00;99.90;;;;;;5028386;28;20308;-79
2023/02/19 06:30:20;;;;;;;43.85;19.52;;;8.00;99.90;;;;;;5037615;28;20128;-79
2023/02/19 06:32:49;;;;;;;38.63;18.20;;;8.00;99.90;;;;;;5018924;28;20048;-80
2023/02/19 06:35:16;;;;;;;34.72;17.35;;;8.00;99.90;;;;;;5029926;28;20064;-79
2023/02/19 06:37:45;;;;;;;35.22;18.13;;;7.90;99.90;;;;;;5024493;28;20032;-80
2023/02/19 06:40:12;;;;;;;43.58;20.77;;;7.90;99.90;;;;;;5018812;28;20067;-79
2023/02/19 06:42:39;;;;;;;36.05;16.08;;;7.90;99.90;;;;;;5013552;28;20048;-79
2023/02/19 06:45:06;;;;;;;40.08;18.33;;;7.90;99.90;;;;;;5043247;28;20045;-78
2023/02/19 06:47:33;;;;;;;41.53;16.52;;;7.90;99.90;;;;;;5016884;28;20537;-79
2023/02/19 06:49:59;;;;;;;41.38;18.67;;;7.90;99.90;;;;;;5018763;28;20103;-79
2023/02/19 06:52:27;;;;;;;37.85;18.58;;;7.90;99.90;;;;;;5025586;28;20514;-81
2023/02/19 06:54:53;;;;;;;30.27;14.20;;;7.90;99.90;;;;;;5031670;28;20230;-78
2023/02/19 06:57:20;;;;;;;32.75;15.35;;;7.90;99.90;;;;;;5022911;28;20055;-78
2023/02/19 06:59:47;;;;;;;26.88;13.57;;;7.90;99.90;;;;;;5020667;28;20041;-82
2023/02/19 07:02:13;;;;;;;30.08;14.02;;;7.80;99.90;;;;;;5045108;28;20041;-79
2023/02/19 07:04:40;;;;;;;27.65;13.85;;;7.80;99.90;;;;;;5044599;28;20128;-79
2023/02/19 07:07:10;;;;;;;29.23;13.90;;;7.80;99.90;;;;;;5032685;28;20537;-80
2023/02/19 07:09:37;;;;;;;30.30;13.38;;;7.80;99.90;;;;;;5024494;28;20494;-79
2023/02/19 07:12:04;;;;;;;31.60;14.80;;;7.80;99.90;;;;;;5033454;28;20044;-79
2023/02/19 07:14:31;;;;;;;28.77;15.45;;;7.80;99.90;;;;;;5024333;28;20052;-80
2023/02/19 07:16:57;;;;;;;33.97;15.50;;;7.80;99.90;;;;;;5005731;28;20061;-80
2023/02/19 07:19:24;;;;;;;33.03;15.70;;;7.80;99.90;;;;;;5034833;28;20044;-80
2023/02/19 07:21:51;;;;;;;34.58;15.77;;;7.80;99.90;;;;;;5042491;28;20597;-79
2023/02/19 07:24:20;;;;;;;29.95;15.25;;;7.90;99.90;;;;;;5029319;28;20044;-79
2023/02/19 07:26:47;;;;;;;31.52;16.05;;;7.90;99.90;;;;;;5023882;28;20103;-81
2023/02/19 07:29:13;;;;;;;35.55;14.80;;;7.90;99.90;;;;;;5050982;28;20044;-77
2023/02/19 07:31:41;;;;;;;31.90;15.02;;;7.90;99.90;;;;;;5009735;28;20060;-80
2023/02/19 07:34:08;;;;;;;34.25;15.57;;;7.90;99.90;;;;;;5031341;28;20470;-80
2023/02/19 07:36:36;;;;;;;31.42;14.73;;;7.90;99.90;;;;;;5033037;28;20055;-81
2023/02/19 07:39:03;;;;;;;35.22;16.58;;;7.90;99.90;;;;;;5022550;28;20485;-79
2023/02/19 07:41:30;;;;;;;31.95;14.48;;;7.90;99.90;;;;;;5011860;28;20509;-78
2023/02/19 07:43:58;;;;;;;28.42;15.85;;;7.90;99.90;;;;;;5030219;28;20044;-80
2023/02/19 07:46:24;;;;;;;28.25;14.98;;;7.90;99.90;;;;;;5024804;28;20045;-77
2023/02/19 07:48:51;;;;;;;28.55;15.43;;;7.90;99.90;;;;;;5006550;28;20140;-78
2023/02/19 07:51:19;;;;;;;35.13;15.73;;;7.90;99.90;;;;;;5029469;28;20037;-80
2023/02/19 07:53:49;;;;;;;31.40;14.60;;;7.90;99.90;;;;;;5032921;28;20079;-80
2023/02/19 07:56:16;;;;;;;30.90;14.38;;;7.90;99.90;;;;;;5026457;28;20044;-81
2023/02/19 07:58:45;;;;;;;18.30;8.90;;;7.90;99.90;;;;;;5051483;28;20135;-81
2023/02/19 08:02:58;;;;;;;12.40;7.35;;;7.70;99.90;;;;;;5036533;28;20055;-82
2023/02/19 08:04:11;;;;;;;9.70;5.80;;;7.40;99.90;;;;;;5026705;28;20053;-79
2023/02/19 08:06:38;;;;;;;4.90;3.25;;;7.20;99.90;;;;;;5047549;28;20414;-82
2023/02/19 08:09:05;;;;;;;7.35;3.15;;;7.10;99.90;;;;;;5020433;28;20486;-79
2023/02/19 08:14:25;;;;;;;1.63;1.30;;;6.90;99.90;;;;;;5017029;28;20561;-82
2023/02/19 08:16:53;;;;;;;2.75;1.42;;;6.70;99.90;;;;;;5037393;28;20615;-81
2023/02/19 08:19:20;;;;;;;1.15;0.65;;;6.60;99.90;;;;;;5011312;28;20757;-79
2023/02/19 08:21:47;;;;;;;1.35;0.88;;;6.40;99.90;;;;;;5017017;28;20056;-78
2023/02/19 08:24:16;;;;;;;1.00;0.90;;;6.30;99.90;;;;;;5029879;28;20044;-79
2023/02/19 08:26:43;;;;;;;1.45;1.05;;;6.30;99.90;;;;;;5049297;28;20048;-80
2023/02/19 08:29:09;;;;;;;1.27;1.08;;;6.30;99.90;;;;;;5028822;28;20124;-78
2023/02/19 08:31:36;;;;;;;1.42;0.98;;;6.30;99.90;;;;;;5011728;28;20049;-79
2023/02/19 08:34:03;;;;;;;1.92;1.33;;;6.10;99.90;;;;;;5027512;28;20098;-81
2023/02/19 08:36:30;;;;;;;1.58;1.15;;;6.10;99.90;;;;;;5019820;28;20333;-81
2023/02/19 08:38:59;;;;;;;0.65;0.65;;;6.10;99.90;;;;;;5029579;28;20343;-79
2023/02/19 08:41:26;;;;;;;1.90;1.00;;;6.10;99.90;;;;;;5026356;28;20047;-80
2023/02/19 08:43:53;;;;;;;1.95;1.45;;;6.10;99.90;;;;;;5024657;28;20066;-81
2023/02/19 08:46:21;;;;;;;1.92;1.42;;;6.20;99.90;;;;;;5046567;28;20564;-80
2023/02/19 08:48:48;;;;;;;2.22;2.00;;;6.20;99.90;;;;;;5025707;28;20127;-82
2023/02/19 08:51:14;;;;;;;3.42;2.95;;;6.20;99.90;;;;;;5043893;28;20045;-79
2023/02/19 08:53:41;;;;;;;4.75;3.50;;;6.10;99.90;;;;;;5020189;28;20063;-79
2023/02/19 08:56:11;;;;;;;2.75;1.83;;;6.00;99.90;;;;;;5029163;28;20303;-81
2023/02/19 08:58:38;;;;;;;2.78;1.75;;;6.00;99.90;;;;;;5028085;28;20049;-78
2023/02/19 09:01:10;;;;;;;4.18;2.95;;;6.00;99.90;;;;;;5028590;28;20071;-81
2023/02/19 09:03:38;;;;;;;3.15;2.05;;;6.00;99.90;;;;;;5028291;28;20531;-79
2023/02/19 09:06:05;;;;;;;2.65;2.03;;;6.00;99.90;;;;;;5023876;28;20040;-80
2023/02/19 09:08:31;;;;;;;3.75;2.03;;;6.00;99.90;;;;;;5017098;28;20140;-79
2023/02/19 09:11:03;;;;;;;2.55;1.35;;;5.90;99.90;;;;;;5018877;28;20036;-79
2023/02/19 09:13:30;;;;;;;1.45;1.17;;;5.80;99.90;;;;;;5035504;28;20406;-78
2023/02/19 09:15:57;;;;;;;1.67;1.45;;;5.80;99.90;;;;;;5029159;28;20047;-77
2023/02/19 09:18:25;;;;;;;2.00;1.35;;;5.80;99.90;;;;;;5037441;28;20110;-77
2023/02/19 09:20:51;;;;;;;2.22;1.50;;;5.70;99.90;;;;;;5033284;28;20429;-77
2023/02/19 09:23:18;;;;;;;1.58;1.10;;;5.80;99.90;;;;;;5031323;28;20060;-78
2023/02/19 09:25:45;;;;;;;1.98;1.33;;;5.80;99.90;;;;;;5048806;28;20053;-78
2023/02/19 09:28:12;;;;;;;2.03;1.67;;;5.80;99.90;;;;;;5020274;28;20047;-77
2023/02/19 09:30:38;;;;;;;1.30;0.98;;;6.00;99.90;;;;;;5026875;28;20068;-76
2023/02/19 09:33:06;;;;;;;1.20;0.95;;;6.10;99.90;;;;;;5036931;28;20702;-77
2023/02/19 09:35:33;;;;;;;0.70;0.70;;;6.20;99.90;;;;;;5021804;28;20044;-76
2023/02/19 09:38:00;;;;;;;1.40;0.80;;;6.20;99.90;;;;;;5032915;28;20051;-76
2023/02/19 09:40:29;;;;;;;0.93;0.85;;;6.20;99.90;;;;;;5034921;28;20041;-78
2023/02/19 09:42:56;;;;;;;1.25;0.98;;;6.20;99.90;;;;;;5015059;28;21030;-78
2023/02/19 09:45:24;;;;;;;1.05;0.90;;;6.20;99.90;;;;;;5031811;28;20064;-79
2023/02/19 09:47:56;;;;;;;2.65;1.20;;;6.30;99.90;;;;;;5032874;28;20040;-78
2023/02/19 09:50:47;;;;;;;1.00;0.90;;;6.30;99.90;;;;;;5036880;28;20156;-78
2023/02/19 09:53:20;;;;;;;1.05;0.95;;;6.30;99.90;;;;;;5017148;28;20418;-78
2023/02/19 09:55:47;;;;;;;1.42;1.08;;;6.40;99.90;;;;;;5018018;28;20248;-78
2023/02/19 09:58:44;;;;;;;1.02;1.00;;;6.40;99.90;;;;;;5034398;28;20052;-78
2023/02/19 10:01:11;;;;;;;1.40;1.30;;;6.40;99.90;;;;;;5021581;28;20700;-78
2023/02/19 10:03:45;;;;;;;1.45;1.35;;;6.50;99.90;;;;;;5014737;28;20045;-76
2023/02/19 10:06:25;;;;;;;1.85;1.75;;;6.50;99.90;;;;;;5036777;28;20118;-79
2023/02/19 10:08:58;;;;;;;1.50;1.40;;;6.40;99.90;;;;;;5030699;28;20072;-79
2023/02/19 10:11:26;;;;;;;3.17;1.67;;;6.40;99.90;;;;;;5022870;28;20048;-78
2023/02/19 10:14:03;;;;;;;1.75;1.65;;;6.40;99.90;;;;;;5032304;28;20056;-78
2023/02/19 10:16:30;;;;;;;3.78;2.63;;;6.30;99.90;;;;;;5011697;28;20045;-77
2023/02/19 10:18:57;;;;;;;6.85;3.47;;;6.40;99.90;;;;;;5016929;28;20111;-77
2023/02/19 10:21:26;;;;;;;4.72;2.85;;;6.30;99.90;;;;;;5013641;28;20072;-79
2023/02/19 10:23:56;;;;;;;9.13;4.13;;;6.30;99.90;;;;;;5034733;28;20127;-77
2023/02/19 10:26:23;;;;;;;4.45;3.03;;;6.30;99.90;;;;;;5024751;28;20045;-77
2023/02/19 10:28:50;;;;;;;2.50;2.30;;;6.30;99.90;;;;;;5040312;28;20074;-76
2023/02/19 10:31:19;;;;;;;3.13;2.47;;;6.40;99.90;;;;;;5052460;28;20070;-78
2023/02/19 10:33:55;;;;;;;2.78;2.45;;;6.40;99.90;;;;;;5029524;28;20049;-77
2023/02/19 10:36:32;;;;;;;2.63;2.42;;;6.30;99.90;;;;;;5044564;28;20131;-80
2023/02/19 10:39:20;;;;;;;2.35;2.15;;;6.30;99.90;;;;;;5023484;28;20104;-80
2023/02/19 10:41:53;;;;;;;1.88;1.77;;;6.20;99.90;;;;;;5022362;28;20076;-77
2023/02/19 10:44:29;;;;;;;1.65;1.55;;;6.20;99.90;;;;;;5028852;28;20296;-77
2023/02/19 10:46:58;;;;;;;1.48;1.38;;;6.30;99.90;;;;;;5032769;28;20401;-78
2023/02/19 10:49:38;;;;;;;1.50;1.50;;;6.30;99.90;;;;;;5042368;28;20448;-77
2023/02/19 10:52:17;;;;;;;2.47;2.38;;;6.40;99.90;;;;;;5009167;28;20041;-77
2023/02/19 10:54:48;;;;;;;3.78;3.10;;;6.60;99.90;;;;;;5023716;28;20059;-77
2023/02/19 10:57:24;;;;;;;3.10;3.00;;;6.50;99.90;;;;;;5030797;28;20039;-77
2023/02/19 11:00:26;;;;;;;3.22;3.13;;;6.60;99.90;;;;;;5029888;28;20049;-76
2023/02/19 11:03:19;;;;;;;3.30;3.20;;;6.70;99.90;;;;;;5008123;28;20051;-79
2023/02/19 11:06:01;;;;;;;4.28;4.18;;;6.70;99.90;;;;;;5047455;28;20581;-77
2023/02/19 11:08:29;;;;;;;4.72;4.63;;;6.70;99.90;;;;;;5029637;28;20051;-78
2023/02/19 11:10:56;;;;;;;4.65;4.38;;;6.70;99.90;;;;;;5006231;28;20049;-77
2023/02/19 11:13:29;;;;;;;5.68;5.45;;;6.90;99.90;;;;;;5012710;28;20048;-78
2023/02/19 11:15:57;;;;;;;6.35;6.15;;;6.70;99.90;;;;;;5019151;28;20051;-77
2023/02/19 11:18:29;;;;;;;5.90;5.70;;;6.60;99.90;;;;;;5037083;28;20044;-76
2023/02/19 11:21:05;;;;;;;5.18;4.97;;;6.70;99.90;;;;;;5036928;28;20051;-78
2023/02/19 11:23:34;;;;;;;6.13;5.82;;;7.00;99.90;;;;;;5024178;28;20135;-76
2023/02/19 11:26:05;;;;;;;5.43;5.13;;;7.20;99.90;;;;;;5030664;28;20700;-78
2023/02/19 11:28:35;;;;;;;5.32;5.03;;;7.20;99.90;;;;;;5027769;28;20138;-77
2023/02/19 11:31:13;;;;;;;5.80;5.50;;;7.20;99.90;;;;;;5026772;28;21327;-77
2023/02/19 11:34:00;;;;;;;5.75;5.45;;;7.10;99.90;;;;;;5033259;28;20577;-76
2023/02/19 11:36:35;;;;;;;7.00;6.70;;;7.10;99.90;;;;;;5025626;28;20044;-74
2023/02/19 11:39:23;;;;;;;;;;;7.00;99.90;;;;;;5041783;28;20395;-74
2023/02/19 11:42:13;;;;;;;6.85;6.32;;;6.80;99.90;;;;;;5014324;28;19963;-78
2023/02/19 11:45:04;;;;;;;8.40;7.90;;;6.90;99.90;;;;;;5046568;28;20080;-75
2023/02/19 11:47:41;;;;;;;8.05;7.55;;;6.70;99.90;;;;;;5030465;28;20041;-78
2023/02/19 11:50:23;;;;;;;6.72;6.32;;;6.50;99.90;;;;;;5013454;28;20483;-77
2023/02/19 11:53:13;;;;;;;6.65;6.18;;;6.30;99.90;;;;;;5040511;28;20078;-77
2023/02/19 11:55:59;;;;;;;6.00;5.60;;;6.40;99.90;;;;;;5027471;28;20041;-78
2023/02/19 11:58:38;;;;;;;7.38;6.97;;;6.40;99.90;;;;;;5033528;28;20045;-77
2023/02/19 12:02:02;;;;;;;9.70;9.13;;;6.30;99.90;;;;;;5022150;28;20594;-78
2023/02/19 12:05:16;;;;;;;8.15;7.75;;;6.30;99.90;;;;;;4968717;28;20097;-78
2023/02/19 12:08:25;;;;;;;8.05;7.50;;;6.40;99.90;;;;;;4951519;28;20046;-77
2023/02/19 12:11:13;;;;;;;9.77;9.32;;;6.60;99.90;;;;;;5029317;28;20544;-77
2023/02/19 12:14:18;;;;;;;9.40;8.80;;;6.60;99.90;;;;;;5026273;28;20049;-78
2023/02/19 12:16:57;;;;;;;10.65;10.07;;;6.50;99.90;;;;;;5009251;28;20101;-78
2023/02/19 12:19:30;;;;;;;8.38;7.97;;;6.60;99.90;;;;;;5032951;28;20040;-77
2023/02/19 12:22:05;;;;;;;9.70;9.20;;;6.80;99.90;;;;;;5032085;28;20044;-77
2023/02/19 12:24:37;;;;;;;;;;;6.90;99.90;;;;;;5026645;28;20131;-77
2023/02/19 12:27:18;;;;;;;10.63;10.13;;;6.90;99.90;;;;;;5022343;28;20334;-77
2023/02/19 12:30:16;;;;;;;11.23;10.73;;;7.00;99.90;;;;;;5008247;28;20044;-77
2023/02/19 12:33:20;;;;;;;12.43;11.73;;;7.10;99.90;;;;;;5004101;28;20167;-76
2023/02/19 12:36:12;;;;;;;14.27;13.57;;;7.30;99.90;;;;;;5013656;28;20512;-77
2023/02/19 12:38:46;;;;;;;12.38;11.77;;;7.10;99.90;;;;;;5020908;28;20051;-77
2023/02/19 12:41:26;;;;;;;14.50;13.70;;;7.30;99.90;;;;;;5031635;28;20525;-76
2023/02/19 12:44:02;;;;;;;13.45;12.82;;;7.40;99.90;;;;;;5027033;28;20071;-77
2023/02/19 12:46:31;;;;;;;13.82;13.02;;;7.30;99.90;;;;;;5044717;28;20047;-77
2023/02/19 12:49:30;;;;;;;14.38;13.57;;;7.30;99.90;;;;;;5014844;28;20047;-78
2023/02/19 12:52:22;;;;;;;18.20;17.20;;;7.40;99.90;;;;;;5038767;28;20041;-77
2023/02/19 12:54:55;;;;;;;17.50;16.70;;;7.60;99.90;;;;;;5011350;28;20044;-77
2023/02/19 12:57:33;;;;;;;16.80;15.95;;;7.30;99.90;;;;;;5027974;28;20079;-77
2023/02/19 13:00:38;;;;;;;16.48;15.57;;;7.40;99.90;;;;;;5031827;28;20559;-77
2023/02/19 13:03:07;;;;;;;17.67;16.85;;;7.50;99.90;;;;;;5022735;28;20159;-77
2023/02/19 13:05:55;;;;;;;17.08;16.15;;;7.30;99.90;;;;;;5027920;28;20040;-77
2023/02/19 13:08:32;;;;;;;17.75;17.05;;;7.30;99.90;;;;;;5029283;28;20171;-77
2023/02/19 13:11:04;;;;;;;20.02;18.92;;;7.00;99.90;;;;;;5028268;28;20047;-77
2023/02/19 13:14:02;;;;;;;17.15;16.40;;;7.00;99.90;;;;;;5030056;28;20416;-77
2023/02/19 13:16:32;;;;;;;15.80;15.10;;;7.20;99.90;;;;;;5030044;28;20058;-77
2023/02/19 13:19:01;;;;;;;19.98;19.08;;;7.20;99.90;;;;;;5022875;28;20103;-76
2023/02/19 13:24:29;;;;;;;21.98;20.98;;;7.40;99.90;;;;;;5040061;28;20139;-76
2023/02/19 13:26:59;;;;;;;21.05;20.15;;;7.50;99.90;;;;;;5047624;28;20045;-77
2023/02/19 13:29:31;;;;;;;23.70;22.52;;;7.40;99.90;;;;;;5010083;28;20036;-77
2023/02/19 13:32:34;;;;;;;25.13;23.95;;;7.50;99.90;;;;;;5025948;28;20083;-76
2023/02/19 13:35:20;;;;;;;18.60;17.70;;;7.20;99.90;;;;;;5020754;28;20483;-76
2023/02/19 13:37:48;;;;;;;27.58;24.92;;;7.00;99.90;;;;;;5031577;28;20537;-76
2023/02/19 13:40:21;;;;;;;20.65;18.88;;;7.00;99.90;;;;;;5032391;28;20045;-79